Time;durP1;ratioP1;P1;durP2;ratioP2;P2;SDS_P1;SDS_P2;PMS_P1;PMS_P2;Temp;Humidity;BMP_temperature;BMP_pressure;BME280_temperature;BME280_humidity;BME280_pressure;Samples;Min_cycle;Max_cycle;Signal;HPM_P1;HPM_P2
2023/09/06 00:01:48;;;;;;;14.60;3.10;;;24.40;99.90;;;;;;4989658;28;20030;-89
2023/09/06 00:04:14;;;;;;;16.80;3.38;;;24.30;99.90;;;;;;4991116;28;20026;-90
2023/09/06 00:06:39;;;;;;;18.67;3.38;;;24.30;99.90;;;;;;4983188;28;20105;-89
2023/09/06 00:09:05;;;;;;;14.48;3.47;;;24.20;99.90;;;;;;4972181;28;20030;-89
2023/09/06 00:11:31;;;;;;;17.13;3.50;;;24.20;99.90;;;;;;4971330;28;20031;-88
2023/09/06 00:13:56;;;;;;;12.15;3.33;;;24.10;99.90;;;;;;4971605;28;20402;-90
2023/09/06 00:16:22;;;;;;;16.08;3.70;;;24.10;99.90;;;;;;4974421;28;20037;-89
2023/09/06 00:18:47;;;;;;;14.15;3.15;;;24.10;99.90;;;;;;4971129;28;20030;-89
2023/09/06 00:21:13;;;;;;;12.13;3.28;;;24.10;99.90;;;;;;4971167;28;20023;-90
2023/09/06 00:23:40;;;;;;;12.55;3.10;;;24.00;99.90;;;;;;4971213;28;20035;-90
2023/09/06 00:26:05;;;;;;;11.02;3.85;;;24.00;99.90;;;;;;4971719;28;20034;-89
2023/09/06 00:28:31;;;;;;;11.57;3.30;;;24.00;99.90;;;;;;4970783;28;20419;-89
2023/09/06 00:30:58;;;;;;;13.43;2.97;;;23.90;99.90;;;;;;4982722;28;20381;-88
2023/09/06 00:33:26;;;;;;;14.10;3.13;;;23.90;99.90;;;;;;4975742;28;20042;-90
2023/09/06 00:35:54;;;;;;;14.15;3.75;;;23.80;99.90;;;;;;4970907;28;20479;-88
2023/09/06 00:38:20;;;;;;;19.73;3.47;;;23.80;99.90;;;;;;4970139;28;20019;-88
2023/09/06 00:40:51;;;;;;;10.93;3.35;;;23.70;99.90;;;;;;4969499;28;20118;-89
2023/09/06 00:43:17;;;;;;;18.27;3.72;;;23.70;99.90;;;;;;4970882;28;20027;-88
2023/09/06 00:45:45;;;;;;;16.00;3.50;;;23.70;99.90;;;;;;4974932;28;20023;-90
2023/09/06 00:48:29;;;;;;;12.93;3.30;;;23.70;99.90;;;;;;4989949;28;20490;-88
2023/09/06 00:50:56;;;;;;;19.58;4.15;;;23.70;99.90;;;;;;4989816;28;20038;-90
2023/09/06 00:53:24;;;;;;;14.55;3.53;;;23.60;99.90;;;;;;4990247;28;20085;-89
2023/09/06 00:55:50;;;;;;;17.23;3.55;;;23.60;99.90;;;;;;4989997;28;20038;-88
2023/09/06 00:58:18;;;;;;;19.38;3.70;;;23.50;99.90;;;;;;4988395;28;20038;-88
2023/09/06 01:00:45;;;;;;;22.73;3.55;;;23.50;99.90;;;;;;4988968;28;20026;-89
2023/09/06 01:03:11;;;;;;;18.90;3.60;;;23.50;99.90;;;;;;4990037;28;20034;-88
2023/09/06 01:05:46;;;;;;;14.25;3.47;;;23.40;99.90;;;;;;4990708;28;20061;-89
2023/09/06 01:08:18;;;;;;;18.73;3.22;;;23.40;99.90;;;;;;4990009;28;20054;-89
2023/09/06 01:10:44;;;;;;;11.30;3.40;;;23.30;99.90;;;;;;4986618;28;20023;-88
2023/09/06 01:13:10;;;;;;;17.33;3.55;;;23.20;99.90;;;;;;4980750;28;20045;-89
2023/09/06 01:15:40;;;;;;;13.15;3.50;;;23.20;99.90;;;;;;4971192;28;20027;-89
2023/09/06 01:18:07;;;;;;;17.52;4.20;;;23.20;99.90;;;;;;4977490;28;20034;-88
2023/09/06 01:20:43;;;;;;;17.48;3.45;;;23.20;99.90;;;;;;4989712;28;20360;-89
2023/09/06 01:23:35;;;;;;;18.05;3.58;;;23.20;99.90;;;;;;4990589;28;20567;-89
2023/09/06 01:26:02;;;;;;;19.33;3.58;;;23.20;99.90;;;;;;4986687;28;20295;-90
2023/09/06 01:28:28;;;;;;;15.27;3.35;;;23.10;99.90;;;;;;4980072;28;20105;-90
2023/09/06 01:30:54;;;;;;;18.27;3.35;;;23.10;99.90;;;;;;4970638;28;20110;-89
2023/09/06 01:33:22;;;;;;;16.67;4.10;;;23.10;99.90;;;;;;4970272;28;20031;-88
2023/09/06 01:35:48;;;;;;;13.25;3.75;;;23.00;99.90;;;;;;4975756;28;20014;-89
2023/09/06 01:38:15;;;;;;;16.58;3.38;;;23.00;99.90;;;;;;4989669;28;20039;-88
2023/09/06 01:40:42;;;;;;;14.02;3.38;;;22.90;99.90;;;;;;4990978;28;20423;-89
2023/09/06 01:43:09;;;;;;;19.42;4.32;;;22.90;99.90;;;;;;4989860;28;20053;-89
2023/09/06 01:45:42;;;;;;;14.88;3.47;;;22.90;99.90;;;;;;4987621;28;20572;-89
2023/09/06 01:48:08;;;;;;;17.45;3.70;;;22.80;99.90;;;;;;4975704;28;20038;-89
2023/09/06 01:50:34;;;;;;;20.77;3.67;;;22.80;99.90;;;;;;4973664;28;20034;-89
2023/09/06 01:52:59;;;;;;;12.18;3.88;;;22.90;99.90;;;;;;4974018;28;20058;-88
2023/09/06 01:55:25;;;;;;;22.55;3.90;;;22.90;99.90;;;;;;4987013;28;20101;-88
2023/09/06 01:57:51;;;;;;;17.33;3.95;;;22.90;99.90;;;;;;4991791;28;20085;-92
2023/09/06 02:02:48;;;;;;;19.15;3.78;;;22.80;99.90;;;;;;4990702;28;20019;-88
2023/09/06 02:05:14;;;;;;;11.88;3.58;;;22.80;99.90;;;;;;4988802;28;20096;-89
2023/09/06 02:07:39;;;;;;;10.35;3.50;;;22.90;99.90;;;;;;4986745;28;20580;-89
2023/09/06 02:10:05;;;;;;;11.27;3.25;;;22.80;99.90;;;;;;5005835;28;20032;-88
2023/09/06 02:12:31;;;;;;;10.18;3.17;;;22.80;99.90;;;;;;4988674;28;20039;-87
2023/09/06 02:14:56;;;;;;;15.50;3.40;;;22.80;99.90;;;;;;4999014;28;20977;-87
2023/09/06 02:17:26;;;;;;;13.80;3.72;;;22.80;99.90;;;;;;4993591;28;20027;-89
2023/09/06 02:19:52;;;;;;;17.73;3.78;;;22.90;99.90;;;;;;4993428;28;20026;-88
2023/09/06 02:22:18;;;;;;;21.42;4.55;;;22.90;99.90;;;;;;4988495;28;20024;-87
2023/09/06 02:24:44;;;;;;;13.55;3.45;;;22.90;99.90;;;;;;5006557;28;20033;-87
2023/09/06 02:27:12;;;;;;;9.57;3.05;;;22.90;99.90;;;;;;4992793;28;20057;-87
2023/09/06 02:29:39;;;;;;;17.20;3.75;;;22.80;99.90;;;;;;4985826;28;20026;-87
2023/09/06 02:32:05;;;;;;;16.15;3.53;;;22.80;99.90;;;;;;4990966;28;20231;-88
2023/09/06 02:34:31;;;;;;;12.77;3.40;;;22.80;99.90;;;;;;4992891;28;20022;-88
2023/09/06 02:36:56;;;;;;;16.35;3.78;;;22.70;99.90;;;;;;4992148;28;20022;-87
2023/09/06 02:39:25;;;;;;;18.25;3.55;;;22.70;99.90;;;;;;4991138;28;20026;-88
2023/09/06 02:41:51;;;;;;;16.42;3.63;;;22.70;99.90;;;;;;4992731;28;20134;-89
2023/09/06 02:44:16;;;;;;;12.57;4.10;;;22.70;99.90;;;;;;4992512;28;20109;-87
2023/09/06 02:46:43;;;;;;;16.15;3.63;;;22.70;99.90;;;;;;4992098;28;20502;-88
2023/09/06 02:49:12;;;;;;;10.05;3.50;;;22.60;99.90;;;;;;4992525;28;20026;-89
2023/09/06 02:51:43;;;;;;;12.27;3.50;;;22.60;99.90;;;;;;4992048;28;20029;-87
2023/09/06 02:54:10;;;;;;;12.88;3.88;;;22.60;99.90;;;;;;4990219;28;20033;-87
2023/09/06 02:56:39;;;;;;;17.20;3.72;;;22.50;99.90;;;;;;4980904;28;20339;-86
2023/09/06 02:59:07;;;;;;;15.70;3.85;;;22.40;99.90;;;;;;4991950;28;20098;-87
2023/09/06 03:01:35;;;;;;;15.32;4.10;;;22.30;99.90;;;;;;4988690;28;20022;-89
2023/09/06 03:04:06;;;;;;;14.48;3.40;;;22.30;99.90;;;;;;4973439;28;20031;-88
2023/09/06 03:06:33;;;;;;;19.88;4.55;;;22.30;99.90;;;;;;4972670;28;20023;-88
2023/09/06 03:08:59;;;;;;;12.60;3.40;;;22.30;99.90;;;;;;4978591;28;20435;-89
2023/09/06 03:11:25;;;;;;;12.48;3.20;;;22.30;99.90;;;;;;4973153;28;20058;-90
2023/09/06 03:13:55;;;;;;;13.10;3.30;;;22.20;99.90;;;;;;4971853;28;20468;-91
2023/09/06 03:16:24;;;;;;;17.08;4.13;;;22.20;99.90;;;;;;4973665;28;20073;-90
2023/09/06 03:18:51;;;;;;;15.98;4.32;;;22.30;99.90;;;;;;4972804;28;20030;-88
2023/09/06 03:21:18;;;;;;;12.18;3.50;;;22.20;99.90;;;;;;4990510;28;20030;-91
2023/09/06 03:23:45;;;;;;;14.27;3.33;;;22.20;99.90;;;;;;4993019;28;20019;-89
2023/09/06 03:26:10;;;;;;;15.75;3.92;;;22.20;99.90;;;;;;4991936;28;20406;-90
2023/09/06 03:28:40;;;;;;;17.65;3.85;;;22.20;99.90;;;;;;4978515;28;20038;-89
2023/09/06 03:31:09;;;;;;;11.93;3.45;;;22.20;99.90;;;;;;4971946;28;20023;-90
2023/09/06 03:33:35;;;;;;;;;;;22.10;99.90;;;;;;4973750;28;20031;-91
2023/09/06 03:36:07;;;;;;;16.52;4.20;;;22.10;99.90;;;;;;4972732;28;19910;-89
2023/09/06 03:38:33;;;;;;;19.55;3.53;;;21.90;99.90;;;;;;4988740;28;20030;-89
2023/09/06 03:41:02;;;;;;;16.75;3.80;;;21.90;99.90;;;;;;4991406;28;20030;-89
2023/09/06 03:43:32;;;;;;;16.33;4.05;;;21.90;99.90;;;;;;4990814;28;20100;-90
2023/09/06 03:45:58;;;;;;;14.00;3.40;;;21.90;99.90;;;;;;4992356;28;20033;-90
2023/09/06 03:48:27;;;;;;;12.70;3.70;;;21.80;99.90;;;;;;4992295;28;20383;-91
2023/09/06 03:50:57;;;;;;;16.65;3.63;;;21.80;99.90;;;;;;4971372;28;20506;-89
2023/09/06 03:53:25;;;;;;;11.50;3.65;;;21.80;99.90;;;;;;4972646;28;20402;-89
2023/09/06 03:55:57;;;;;;;11.82;3.20;;;21.80;99.90;;;;;;4972248;28;20037;-89
2023/09/06 03:58:23;;;;;;;18.17;5.07;;;21.70;99.90;;;;;;4972716;28;20031;-91
2023/09/06 04:00:51;;;;;;;15.32;4.28;;;21.70;99.90;;;;;;4981433;28;20038;-89
2023/09/06 04:03:18;;;;;;;17.52;4.38;;;21.80;99.90;;;;;;4975123;28;20553;-87
2023/09/06 04:05:45;;;;;;;16.73;3.80;;;21.80;99.90;;;;;;4990178;28;20411;-88
2023/09/06 04:08:17;;;;;;;9.50;3.03;;;21.70;99.90;;;;;;4972076;28;20026;-88
2023/09/06 04:10:44;;;;;;;17.05;3.63;;;21.70;99.90;;;;;;4973879;28;20031;-86
2023/09/06 04:13:11;;;;;;;11.73;3.60;;;21.60;99.90;;;;;;4975454;28;20149;-87
2023/09/06 04:15:38;;;;;;;15.07;4.28;;;21.60;99.90;;;;;;4974319;28;20036;-87
2023/09/06 04:18:10;;;;;;;14.35;3.97;;;21.60;99.90;;;;;;4973163;28;20027;-88
2023/09/06 04:20:36;;;;;;;15.85;3.88;;;21.60;99.90;;;;;;4973471;28;20084;-86
2023/09/06 04:23:13;;;;;;;9.73;3.33;;;21.60;99.90;;;;;;4980155;28;20038;-87
2023/09/06 04:25:42;;;;;;;16.00;3.70;;;21.60;99.90;;;;;;4981620;28;20131;-87
2023/09/06 04:28:09;;;;;;;14.25;3.75;;;21.60;99.90;;;;;;4976189;28;20029;-89
2023/09/06 04:30:38;;;;;;;12.45;3.38;;;21.60;99.90;;;;;;4978940;28;20514;-90
2023/09/06 04:33:12;;;;;;;11.20;3.88;;;21.60;99.90;;;;;;4977660;28;20105;-88
2023/09/06 04:35:46;;;;;;;17.33;4.03;;;21.60;99.90;;;;;;4977615;28;20045;-88
2023/09/06 04:38:14;;;;;;;16.92;3.70;;;21.60;99.90;;;;;;4976445;28;20030;-88
2023/09/06 04:40:43;;;;;;;17.52;3.80;;;21.60;99.90;;;;;;4987988;28;20073;-88
2023/09/06 04:43:10;;;;;;;12.57;3.50;;;21.60;99.90;;;;;;4974121;28;20502;-88
2023/09/06 04:45:39;;;;;;;11.55;3.97;;;21.50;99.90;;;;;;4980292;28;20041;-88
2023/09/06 04:48:09;;;;;;;11.77;3.95;;;21.40;99.90;;;;;;4976680;28;20030;-88
2023/09/06 04:50:41;;;;;;;11.95;3.53;;;21.40;99.90;;;;;;4979132;28;20128;-87
2023/09/06 04:53:08;;;;;;;20.73;5.85;;;21.30;99.90;;;;;;4982351;28;20124;-90
2023/09/06 04:55:35;;;;;;;9.25;3.67;;;21.30;99.90;;;;;;4975466;28;20029;-88
2023/09/06 04:58:10;;;;;;;16.13;3.67;;;21.40;99.90;;;;;;4989282;28;20097;-87
2023/09/06 05:00:41;;;;;;;12.77;3.92;;;21.40;99.90;;;;;;4986115;28;20117;-89
2023/09/06 05:03:12;;;;;;;14.48;4.03;;;21.40;99.90;;;;;;4969918;28;20554;-89
2023/09/06 05:05:40;;;;;;;13.95;4.15;;;21.30;99.90;;;;;;4970720;28;20058;-87
2023/09/06 05:08:06;;;;;;;11.18;3.60;;;21.20;99.90;;;;;;4973432;28;21031;-86
2023/09/06 05:10:32;;;;;;;17.25;3.58;;;21.30;99.90;;;;;;4989648;28;20437;-87
2023/09/06 05:12:58;;;;;;;16.40;3.55;;;21.30;99.90;;;;;;4989116;28;20114;-87
2023/09/06 05:15:24;;;;;;;9.20;3.83;;;21.20;99.90;;;;;;4989636;28;20025;-86
2023/09/06 05:17:50;;;;;;;11.80;3.38;;;21.20;99.90;;;;;;4991494;28;20023;-89
2023/09/06 05:20:26;;;;;;;11.57;3.80;;;21.20;99.90;;;;;;4978818;28;20356;-83
2023/09/06 05:22:53;;;;;;;14.27;3.25;;;21.10;99.90;;;;;;4980896;28;20045;-84
2023/09/06 05:25:18;;;;;;;11.82;3.88;;;21.10;99.90;;;;;;4993373;28;20512;-84
2023/09/06 05:27:44;;;;;;;20.88;3.67;;;21.10;99.90;;;;;;4980348;28;20113;-84
2023/09/06 05:30:10;;;;;;;10.10;3.35;;;21.20;99.90;;;;;;4975144;28;20030;-83
2023/09/06 05:32:35;;;;;;;12.13;3.20;;;21.20;99.90;;;;;;4981553;28;20090;-83
2023/09/06 05:35:03;;;;;;;12.10;3.22;;;21.20;99.90;;;;;;4992014;28;20482;-83
2023/09/06 05:37:29;;;;;;;10.60;3.35;;;21.20;99.90;;;;;;4974247;28;20031;-88
2023/09/06 05:39:55;;;;;;;13.07;3.65;;;21.10;99.90;;;;;;4987497;28;20036;-85
2023/09/06 05:42:21;;;;;;;14.65;4.10;;;21.10;99.90;;;;;;5005620;28;20059;-85
2023/09/06 05:44:46;;;;;;;20.98;3.92;;;21.10;99.90;;;;;;4976144;28;20058;-86
2023/09/06 05:47:12;;;;;;;18.10;4.25;;;21.10;99.90;;;;;;4992300;28;20101;-86
2023/09/06 05:49:37;;;;;;;22.75;3.90;;;21.10;99.90;;;;;;4993231;28;20034;-86
2023/09/06 05:52:03;;;;;;;12.02;3.42;;;21.10;99.90;;;;;;4993192;28;20031;-86
2023/09/06 05:54:29;;;;;;;13.52;3.35;;;21.10;99.90;;;;;;4993223;28;20022;-85
2023/09/06 05:56:55;;;;;;;16.13;4.28;;;21.10;99.90;;;;;;4993839;28;20034;-86
2023/09/06 05:59:21;;;;;;;13.70;3.85;;;21.20;99.90;;;;;;4992445;28;20037;-86
2023/09/06 06:01:46;;;;;;;16.52;3.97;;;21.30;99.90;;;;;;4977609;28;20074;-86
2023/09/06 06:04:13;;;;;;;14.02;3.58;;;21.40;99.90;;;;;;4990372;28;20030;-86
2023/09/06 06:06:40;;;;;;;17.63;4.10;;;21.40;99.90;;;;;;4992906;28;20029;-86
2023/09/06 06:09:06;;;;;;;15.05;3.65;;;21.40;99.90;;;;;;4992949;28;20026;-86
2023/09/06 06:11:31;;;;;;;14.23;3.38;;;21.50;99.90;;;;;;4992794;28;20383;-86
2023/09/06 06:13:57;;;;;;;19.67;3.75;;;21.40;99.90;;;;;;4992825;28;20022;-85
2023/09/06 06:16:23;;;;;;;15.32;3.70;;;21.40;99.90;;;;;;4993478;28;20023;-86
2023/09/06 06:18:49;;;;;;;12.20;3.47;;;21.40;99.90;;;;;;4983429;28;20038;-86
2023/09/06 06:21:15;;;;;;;14.95;3.92;;;21.40;99.90;;;;;;4991973;28;20110;-86
2023/09/06 06:23:43;;;;;;;17.00;4.18;;;21.50;99.90;;;;;;4992679;28;20372;-85
2023/09/06 06:26:09;;;;;;;17.45;4.47;;;21.50;99.90;;;;;;4992438;28;20042;-86
2023/09/06 06:28:35;;;;;;;16.83;3.95;;;21.50;99.90;;;;;;5007565;28;20042;-86
2023/09/06 06:31:01;;;;;;;17.33;4.45;;;21.50;99.90;;;;;;4992298;28;20423;-85
2023/09/06 06:33:26;;;;;;;15.85;3.85;;;21.60;99.90;;;;;;4989030;28;20034;-86
2023/09/06 06:35:52;;;;;;;14.98;3.55;;;21.60;99.90;;;;;;4972546;28;20027;-86
2023/09/06 06:38:18;;;;;;;12.52;3.88;;;21.60;99.90;;;;;;4972918;28;20093;-85
2023/09/06 06:40:43;;;;;;;12.68;3.97;;;21.70;99.90;;;;;;4972878;28;20027;-86
2023/09/06 06:43:09;;;;;;;12.38;3.92;;;21.80;99.90;;;;;;4972827;28;20026;-86
2023/09/06 06:45:34;;;;;;;14.07;3.40;;;21.80;99.90;;;;;;4979697;28;20061;-86
2023/09/06 06:48:00;;;;;;;11.77;3.35;;;21.90;99.90;;;;;;4972878;28;20018;-86
2023/09/06 06:50:26;;;;;;;8.02;3.22;;;21.90;99.90;;;;;;4973522;28;20038;-86
2023/09/06 06:52:51;;;;;;;9.18;3.75;;;22.00;99.90;;;;;;4972557;28;20144;-86
2023/09/06 06:55:17;;;;;;;12.35;3.60;;;22.10;99.90;;;;;;4972709;28;20272;-86
2023/09/06 06:57:42;;;;;;;11.38;3.95;;;22.20;99.90;;;;;;4971301;28;20038;-86
2023/09/06 07:00:11;;;;;;;16.23;3.58;;;22.20;99.90;;;;;;4970495;28;20031;-86
2023/09/06 07:02:37;;;;;;;7.43;3.20;;;22.30;99.90;;;;;;4972508;28;20026;-86
2023/09/06 07:05:03;;;;;;;10.45;3.95;;;22.40;99.90;;;;;;4972505;28;20106;-86
2023/09/06 07:07:29;;;;;;;15.05;4.55;;;22.50;99.90;;;;;;4971034;28;20058;-85
2023/09/06 07:09:55;;;;;;;17.42;3.80;;;22.60;99.90;;;;;;4977946;28;20030;-86
2023/09/06 07:12:20;;;;;;;11.90;3.90;;;22.80;99.90;;;;;;4991698;28;20034;-86
2023/09/06 07:14:46;;;;;;;16.65;4.32;;;22.90;99.90;;;;;;4991572;28;20504;-86
2023/09/06 07:17:11;;;;;;;13.35;3.92;;;23.00;99.90;;;;;;4991672;28;20030;-86
2023/09/06 07:19:37;;;;;;;17.25;4.45;;;23.10;99.90;;;;;;4986324;28;20027;-86
2023/09/06 07:22:03;;;;;;;15.55;4.07;;;23.20;99.90;;;;;;4986980;28;20030;-85
2023/09/06 07:24:29;;;;;;;12.70;3.97;;;23.40;99.90;;;;;;4972777;28;20418;-86
2023/09/06 07:26:54;;;;;;;13.02;3.55;;;23.40;99.90;;;;;;4972864;28;20062;-86
2023/09/06 07:29:20;;;;;;;16.95;3.92;;;23.50;99.90;;;;;;4972001;28;20034;-86
2023/09/06 07:31:46;;;;;;;15.70;4.10;;;23.70;99.90;;;;;;4971881;28;20110;-85
2023/09/06 07:34:12;;;;;;;14.75;3.55;;;23.80;99.90;;;;;;4971436;28;20086;-86
2023/09/06 07:36:38;;;;;;;12.82;3.42;;;23.90;99.90;;;;;;4988801;28;20038;-86
2023/09/06 07:39:04;;;;;;;13.15;3.70;;;24.00;99.90;;;;;;4991251;28;20014;-86
2023/09/06 07:41:30;;;;;;;25.80;4.47;;;24.10;99.90;;;;;;4991998;28;20088;-86
2023/09/06 07:43:55;;;;;;;34.20;5.47;;;24.30;99.90;;;;;;4991941;28;20029;-86
2023/09/06 07:46:26;;;;;;;25.15;4.35;;;24.50;99.90;;;;;;4990830;28;20492;-85
2023/09/06 07:48:52;;;;;;;17.90;3.90;;;24.60;99.90;;;;;;4991059;28;20073;-86
2023/09/06 07:51:17;;;;;;;17.13;4.35;;;24.80;99.90;;;;;;4973641;28;20031;-86
2023/09/06 07:53:43;;;;;;;20.30;3.95;;;24.80;99.90;;;;;;4971492;28;20063;-86
2023/09/06 07:56:09;;;;;;;20.20;4.25;;;24.70;99.90;;;;;;4971484;28;20387;-86
2023/09/06 07:58:34;;;;;;;25.88;4.28;;;24.90;99.90;;;;;;4971349;28;20113;-86
2023/09/06 08:01:01;;;;;;;15.30;3.78;;;25.00;99.90;;;;;;4972146;28;20027;-86
2023/09/06 08:03:27;;;;;;;13.32;3.45;;;25.10;99.90;;;;;;4982166;28;20037;-86
2023/09/06 08:05:52;;;;;;;16.48;4.00;;;25.10;99.90;;;;;;4990476;28;20026;-86
2023/09/06 08:08:18;;;;;;;14.25;3.45;;;25.20;99.90;;;;;;4990624;28;20109;-86
2023/09/06 08:10:44;;;;;;;12.43;3.60;;;25.30;99.90;;;;;;4990563;28;20382;-86
2023/09/06 08:13:10;;;;;;;17.73;3.50;;;25.40;99.90;;;;;;4989112;28;20042;-86
2023/09/06 08:15:37;;;;;;;15.52;4.00;;;25.50;99.90;;;;;;4990639;28;20022;-86
2023/09/06 08:18:05;;;;;;;16.88;3.83;;;25.40;99.90;;;;;;4980343;28;20479;-86
2023/09/06 08:20:31;;;;;;;17.55;4.18;;;25.40;99.90;;;;;;4976563;28;20026;-87
2023/09/06 08:22:57;;;;;;;14.77;3.47;;;25.40;99.90;;;;;;4990760;28;20451;-87
2023/09/06 08:25:23;;;;;;;15.68;3.88;;;25.40;99.90;;;;;;4988640;28;20062;-87
2023/09/06 08:27:50;;;;;;;13.98;3.65;;;25.40;99.90;;;;;;4990357;28;20053;-86
2023/09/06 08:30:17;;;;;;;17.35;3.33;;;25.50;99.90;;;;;;4990379;28;20105;-86
2023/09/06 08:32:45;;;;;;;17.70;3.90;;;25.50;99.90;;;;;;4990193;28;20054;-86
2023/09/06 08:35:14;;;;;;;12.55;3.70;;;25.70;99.90;;;;;;4989363;28;20495;-86
2023/09/06 08:37:40;;;;;;;18.90;3.85;;;25.80;99.90;;;;;;4990049;28;20062;-86
2023/09/06 08:40:07;;;;;;;20.00;4.10;;;26.00;99.90;;;;;;4990124;28;20502;-87
2023/09/06 08:42:35;;;;;;;16.63;3.90;;;26.00;99.90;;;;;;4990922;28;20033;-86
2023/09/06 08:45:04;;;;;;;13.20;3.60;;;25.90;99.90;;;;;;4989367;28;20035;-86
2023/09/06 08:47:30;;;;;;;17.42;3.45;;;26.00;99.90;;;;;;4977330;28;20034;-86
2023/09/06 08:49:56;;;;;;;16.27;3.60;;;26.10;99.90;;;;;;4970597;28;20030;-86
2023/09/06 08:52:24;;;;;;;13.20;3.75;;;26.40;99.90;;;;;;4970663;28;20074;-86
2023/09/06 08:54:50;;;;;;;15.02;3.58;;;26.50;99.90;;;;;;4970512;28;20019;-86
2023/09/06 08:57:17;;;;;;;17.30;3.70;;;26.40;99.90;;;;;;4969161;28;20390;-86
2023/09/06 08:59:43;;;;;;;9.57;3.07;;;26.50;99.90;;;;;;4973636;28;20018;-86
2023/09/06 09:02:12;;;;;;;17.95;3.72;;;26.50;99.90;;;;;;4989713;28;20768;-85
2023/09/06 09:04:42;;;;;;;8.65;3.05;;;26.30;99.90;;;;;;4988577;28;20034;-86
2023/09/06 09:07:18;;;;;;;20.48;3.67;;;26.30;99.90;;;;;;4989708;28;20486;-86
2023/09/06 09:10:07;;;;;;;15.23;3.22;;;26.40;99.90;;;;;;4989795;28;20031;-86
2023/09/06 09:12:34;;;;;;;18.20;3.40;;;26.50;99.90;;;;;;4990519;28;20034;-86
2023/09/06 09:15:00;;;;;;;13.17;3.43;;;26.70;99.90;;;;;;4989706;28;20085;-86
2023/09/06 09:17:27;;;;;;;17.23;4.03;;;26.90;99.90;;;;;;4988309;28;20697;-86
2023/09/06 09:19:57;;;;;;;10.77;3.15;;;27.00;99.90;;;;;;4987406;28;20027;-86
2023/09/06 09:22:31;;;;;;;15.73;3.38;;;26.90;99.90;;;;;;4970226;28;20113;-86
2023/09/06 09:25:04;;;;;;;11.80;3.13;;;26.90;99.90;;;;;;4970151;28;20039;-86
2023/09/06 09:27:32;;;;;;;12.45;3.08;;;26.80;99.90;;;;;;4970292;28;20050;-86
2023/09/06 09:30:01;;;;;;;10.88;2.50;;;26.80;99.90;;;;;;4970088;28;20034;-86
2023/09/06 09:32:27;;;;;;;9.88;2.22;;;26.60;99.90;;;;;;4970066;28;20402;-87
2023/09/06 09:34:54;;;;;;;8.98;2.28;;;26.60;99.90;;;;;;4970217;28;20037;-87
2023/09/06 09:37:21;;;;;;;12.18;2.33;;;26.70;99.90;;;;;;4969957;28;20023;-86
2023/09/06 09:39:47;;;;;;;11.27;2.30;;;26.70;99.90;;;;;;4970067;28;20396;-86
2023/09/06 09:42:14;;;;;;;7.50;2.28;;;26.70;99.90;;;;;;4970149;28;20034;-86
2023/09/06 09:44:40;;;;;;;14.20;2.45;;;26.70;99.90;;;;;;4968768;28;20034;-86
2023/09/06 09:47:11;;;;;;;13.07;2.80;;;26.80;99.90;;;;;;4969489;28;20042;-86
2023/09/06 09:49:40;;;;;;;6.38;2.28;;;26.90;99.90;;;;;;4970894;28;20030;-86
2023/09/06 09:52:14;;;;;;;5.97;2.17;;;27.10;99.90;;;;;;4970692;28;20105;-86
2023/09/06 09:54:42;;;;;;;8.65;2.33;;;27.20;99.90;;;;;;4970056;28;20023;-86
2023/09/06 09:57:09;;;;;;;8.27;2.33;;;27.20;99.90;;;;;;4978794;28;20023;-86
2023/09/06 09:59:38;;;;;;;12.07;5.90;;;27.30;99.90;;;;;;4977416;28;20034;-86
2023/09/06 10:02:05;;;;;;;68.57;39.53;;;27.40;99.90;;;;;;4970647;28;20270;-86
2023/09/06 10:04:36;;;;;;;15.20;3.80;;;27.70;99.90;;;;;;4969950;28;20049;-86
2023/09/06 10:07:08;;;;;;;9.15;2.78;;;27.60;99.90;;;;;;4968444;28;20057;-86
2023/09/06 10:09:37;;;;;;;10.90;2.65;;;27.50;99.90;;;;;;4989765;28;20026;-87
2023/09/06 10:12:07;;;;;;;8.20;3.13;;;27.30;99.90;;;;;;4992828;28;20110;-86
2023/09/06 10:14:33;;;;;;;11.00;2.80;;;27.10;99.90;;;;;;4992972;28;20072;-86
2023/09/06 10:17:00;;;;;;;8.85;2.47;;;27.20;99.90;;;;;;4992794;28;20247;-86
2023/09/06 10:19:27;;;;;;;9.60;2.83;;;27.40;99.90;;;;;;4992692;28;20022;-86
2023/09/06 10:21:53;;;;;;;12.50;2.28;;;27.40;99.90;;;;;;4992756;28;20026;-86
2023/09/06 10:24:22;;;;;;;18.95;2.97;;;27.40;99.90;;;;;;4991442;28;20060;-86
2023/09/06 10:26:48;;;;;;;13.73;2.72;;;27.50;99.90;;;;;;4992644;28;20034;-86
2023/09/06 10:29:23;;;;;;;11.43;2.10;;;27.30;99.90;;;;;;4992594;28;20034;-86
2023/09/06 10:31:51;;;;;;;7.60;1.98;;;27.40;99.90;;;;;;4992451;28;20026;-86
2023/09/06 10:34:17;;;;;;;9.10;2.20;;;27.40;99.90;;;;;;4992432;28;20034;-86
2023/09/06 10:36:58;;;;;;;12.60;2.55;;;27.50;99.90;;;;;;4992497;28;20021;-86
2023/09/06 10:39:26;;;;;;;9.48;2.30;;;27.70;99.90;;;;;;4975060;28;20111;-86
2023/09/06 10:42:11;;;;;;;12.90;2.15;;;28.00;99.90;;;;;;4980039;28;20512;-86
2023/09/06 10:44:55;;;;;;;10.85;2.45;;;28.10;99.90;;;;;;4993175;28;20037;-86
2023/09/06 10:47:33;;;;;;;14.23;2.58;;;28.30;99.90;;;;;;4992177;28;20050;-87
2023/09/06 10:50:20;;;;;;;10.32;2.13;;;28.20;99.90;;;;;;4972278;28;20069;-86
2023/09/06 10:52:50;;;;;;;15.67;2.53;;;28.20;99.90;;;;;;4972730;28;20113;-86
2023/09/06 10:55:18;;;;;;;17.80;2.75;;;28.20;99.90;;;;;;4972850;28;20313;-87
2023/09/06 10:57:50;;;;;;;18.90;2.92;;;28.20;99.90;;;;;;4972546;28;20027;-86
2023/09/06 11:00:21;;;;;;;14.00;2.22;;;28.20;99.90;;;;;;4972708;28;20046;-86
2023/09/06 11:03:07;;;;;;;15.93;2.30;;;28.30;99.90;;;;;;4975250;28;20034;-86
2023/09/06 11:05:38;;;;;;;13.63;2.83;;;28.50;99.90;;;;;;4991830;28;20494;-86
2023/09/06 11:08:06;;;;;;;13.38;2.78;;;28.40;99.90;;;;;;4977511;28;20117;-86
2023/09/06 11:10:32;;;;;;;;;;;28.50;99.90;;;;;;4972587;28;20154;-86
2023/09/06 11:13:09;;;;;;;11.95;2.60;;;28.40;99.90;;;;;;4970949;28;19918;-86
2023/09/06 11:15:36;;;;;;;13.40;2.67;;;28.40;99.90;;;;;;4972484;28;20102;-87
2023/09/06 11:18:03;;;;;;;15.93;2.42;;;28.20;99.90;;;;;;4972342;28;20391;-86
2023/09/06 11:20:30;;;;;;;10.45;2.70;;;28.20;99.90;;;;;;4972146;28;20037;-87
2023/09/06 11:23:00;;;;;;;11.32;2.38;;;28.50;99.90;;;;;;4974326;28;20035;-86
2023/09/06 11:25:28;;;;;;;15.48;2.83;;;28.80;99.90;;;;;;4971945;28;20086;-86
2023/09/06 11:27:56;;;;;;;15.60;2.88;;;29.00;99.90;;;;;;4972134;28;20073;-86
2023/09/06 11:30:23;;;;;;;9.70;2.70;;;29.10;99.90;;;;;;4971854;28;20110;-86
2023/09/06 11:32:51;;;;;;;9.35;2.40;;;29.30;99.90;;;;;;4971914;28;20038;-86
2023/09/06 11:35:26;;;;;;;10.20;2.33;;;29.40;99.90;;;;;;4971809;28;20034;-86
2023/09/06 11:37:54;;;;;;;11.63;2.55;;;29.30;99.90;;;;;;4970206;28;20031;-87
2023/09/06 11:40:21;;;;;;;15.68;2.75;;;29.50;99.90;;;;;;4971924;28;20030;-86
2023/09/06 11:42:52;;;;;;;14.55;2.92;;;29.30;99.90;;;;;;4971857;28;20507;-86
2023/09/06 11:45:20;;;;;;;8.68;2.85;;;29.40;99.90;;;;;;4970430;28;20038;-86
2023/09/06 11:47:46;;;;;;;;;;;29.50;99.90;;;;;;4972163;28;20498;-86
2023/09/06 11:50:15;;;;;;;13.13;3.00;;;29.40;99.90;;;;;;4972525;28;19938;-86
2023/09/06 11:52:49;;;;;;;18.40;3.28;;;29.40;99.90;;;;;;4977208;28;20026;-86
2023/09/06 11:55:18;;;;;;;15.60;2.95;;;29.50;99.90;;;;;;4991100;28;20483;-86
2023/09/06 11:57:57;;;;;;;11.70;2.60;;;29.70;99.90;;;;;;4991201;28;20030;-87
2023/09/06 12:00:35;;;;;;;15.85;2.90;;;29.80;99.90;;;;;;4990896;28;20580;-86
2023/09/06 12:03:07;;;;;;;18.40;2.80;;;30.10;99.90;;;;;;4990920;28;20027;-86
2023/09/06 12:05:36;;;;;;;20.02;2.72;;;30.30;99.90;;;;;;4990799;28;20030;-87
2023/09/06 12:08:03;;;;;;;14.77;2.95;;;30.30;99.90;;;;;;4989234;28;20022;-86
2023/09/06 12:10:29;;;;;;;18.15;3.13;;;30.60;99.90;;;;;;4986003;28;20503;-86
2023/09/06 12:12:56;;;;;;;17.17;3.20;;;30.60;99.90;;;;;;4971162;28;20039;-86
2023/09/06 12:15:25;;;;;;;12.63;2.97;;;30.50;99.90;;;;;;4971309;28;20019;-87
2023/09/06 12:17:51;;;;;;;16.77;3.10;;;30.40;99.90;;;;;;4971127;28;20483;-87
2023/09/06 12:20:25;;;;;;;15.88;2.85;;;30.40;99.90;;;;;;4971174;28;20038;-87
2023/09/06 12:22:52;;;;;;;20.30;3.15;;;30.40;99.90;;;;;;4969151;28;20035;-86
2023/09/06 12:25:19;;;;;;;30.98;4.22;;;30.00;99.90;;;;;;4988201;28;20387;-86
2023/09/06 12:27:46;;;;;;;33.08;3.83;;;30.10;99.90;;;;;;4991073;28;20569;-87
2023/09/06 12:30:14;;;;;;;;;;;30.40;99.90;;;;;;5006867;28;20030;-87
2023/09/06 12:32:41;;;;;;;24.33;3.15;;;30.30;99.90;;;;;;4989885;28;20289;-87
2023/09/06 12:35:07;;;;;;;13.43;2.85;;;30.40;99.90;;;;;;4990265;28;20093;-87
2023/09/06 12:37:36;;;;;;;18.67;3.53;;;30.20;99.90;;;;;;4987945;28;20037;-87
2023/09/06 12:40:10;;;;;;;22.77;3.15;;;30.20;99.90;;;;;;4969556;28;20027;-87
2023/09/06 12:42:47;;;;;;;23.30;3.72;;;30.20;99.90;;;;;;4970654;28;20376;-86
2023/09/06 12:45:26;;;;;;;23.40;3.28;;;30.20;99.90;;;;;;4971500;28;20487;-86